sensor_id;sensor_type;location;lat;lon;timestamp;pressure;altitude;pressure_sealevel;temperature;humidity
21240;BME280;10778;48.962;9.018;2023-09-12T00:01:17;98713.78;;;15.85;100.00
21240;BME280;10778;48.962;9.018;2023-09-12T00:03:43;98721.28;;;15.81;100.00
21240;BME280;10778;48.962;9.018;2023-09-12T00:06:09;98717.06;;;15.72;100.00
21240;BME280;10778;48.962;9.018;2023-09-12T00:08:35;98714.59;;;15.70;100.00
21240;BME280;10778;48.962;9.018;2023-09-12T00:11:09;98715.78;;;15.68;100.00
21240;BME280;10778;48.962;9.018;2023-09-12T00:13:38;98708.09;;;15.58;100.00
21240;BME280;10778;48.962;9.018;2023-09-12T00:16:04;98700.94;;;15.58;100.00
21240;BME280;10778;48.962;9.018;2023-09-12T00:18:31;98697.66;;;15.56;100.00
21240;BME280;10778;48.962;9.018;2023-09-12T00:20:57;98706.72;;;15.62;100.00
21240;BME280;10778;48.962;9.018;2023-09-12T00:23:25;98710.66;;;15.66;100.00
21240;BME280;10778;48.962;9.018;2023-09-12T00:25:51;98712.31;;;15.67;100.00
21240;BME280;10778;48.962;9.018;2023-09-12T00:28:20;98710.19;;;15.62;100.00
21240;BME280;10778;48.962;9.018;2023-09-12T00:30:46;98699.56;;;15.62;100.00
21240;BME280;10778;48.962;9.018;2023-09-12T00:33:12;98695.59;;;15.67;100.00
21240;BME280;10778;48.962;9.018;2023-09-12T00:35:38;98699.03;;;15.67;100.00
21240;BME280;10778;48.962;9.018;2023-09-12T00:38:04;98695.84;;;15.72;100.00
21240;BME280;10778;48.962;9.018;2023-09-12T00:40:32;98696.38;;;15.67;100.00
21240;BME280;10778;48.962;9.018;2023-09-12T00:42:58;98703.44;;;15.60;100.00
21240;BME280;10778;48.962;9.018;2023-09-12T00:45:25;98701.22;;;15.48;100.00
21240;BME280;10778;48.962;9.018;2023-09-12T00:47:52;98699.34;;;15.34;100.00
21240;BME280;10778;48.962;9.018;2023-09-12T00:50:20;98695.53;;;15.36;100.00
21240;BME280;10778;48.962;9.018;2023-09-12T00:52:47;98690.63;;;15.25;100.00
21240;BME280;10778;48.962;9.018;2023-09-12T00:55:14;98692.69;;;15.15;100.00
21240;BME280;10778;48.962;9.018;2023-09-12T00:57:40;98695.91;;;15.10;100.00
21240;BME280;10778;48.962;9.018;2023-09-12T01:00:07;98697.91;;;15.08;100.00
21240;BME280;10778;48.962;9.018;2023-09-12T01:02:46;98705.63;;;15.18;100.00
21240;BME280;10778;48.962;9.018;2023-09-12T01:05:13;98695.28;;;15.23;100.00
21240;BME280;10778;48.962;9.018;2023-09-12T01:07:41;98686.09;;;15.34;100.00
21240;BME280;10778;48.962;9.018;2023-09-12T01:10:09;98689.09;;;15.31;100.00
21240;BME280;10778;48.962;9.018;2023-09-12T01:12:35;98690.34;;;15.20;100.00
21240;BME280;10778;48.962;9.018;2023-09-12T01:15:01;98696.53;;;15.12;100.00
21240;BME280;10778;48.962;9.018;2023-09-12T01:17:30;98696.25;;;15.07;100.00
21240;BME280;10778;48.962;9.018;2023-09-12T01:19:56;98686.47;;;15.07;100.00
21240;BME280;10778;48.962;9.018;2023-09-12T01:28:39;98692.66;;;15.00;100.00
21240;BME280;10778;48.962;9.018;2023-09-12T01:31:09;98691.41;;;15.11;100.00
21240;BME280;10778;48.962;9.018;2023-09-12T01:33:35;98689.66;;;15.03;100.00
21240;BME280;10778;48.962;9.018;2023-09-12T01:36:01;98685.81;;;15.05;100.00
21240;BME280;10778;48.962;9.018;2023-09-12T01:38:27;98686.94;;;15.11;100.00
21240;BME280;10778;48.962;9.018;2023-09-12T01:40:54;98697.72;;;15.10;100.00
21240;BME280;10778;48.962;9.018;2023-09-12T01:43:23;98677.81;;;15.14;100.00
21240;BME280;10778;48.962;9.018;2023-09-12T01:45:52;98688.31;;;15.07;100.00
21240;BME280;10778;48.962;9.018;2023-09-12T01:48:22;98678.28;;;14.94;100.00
21240;BME280;10778;48.962;9.018;2023-09-12T01:50:49;98680.81;;;14.87;100.00
21240;BME280;10778;48.962;9.018;2023-09-12T01:53:16;98686.31;;;14.86;100.00
21240;BME280;10778;48.962;9.018;2023-09-12T01:55:43;98690.75;;;14.85;100.00
21240;BME280;10778;48.962;9.018;2023-09-12T01:58:12;98693.06;;;14.88;100.00
21240;BME280;10778;48.962;9.018;2023-09-12T02:00:39;98688.06;;;14.93;100.00
21240;BME280;10778;48.962;9.018;2023-09-12T02:03:06;98680.41;;;14.99;100.00
21240;BME280;10778;48.962;9.018;2023-09-12T02:05:32;98672.88;;;15.11;100.00
21240;BME280;10778;48.962;9.018;2023-09-12T02:07:58;98671.81;;;15.20;100.00
21240;BME280;10778;48.962;9.018;2023-09-12T02:10:27;98671.81;;;15.20;100.00
21240;BME280;10778;48.962;9.018;2023-09-12T02:12:53;98671.75;;;15.05;100.00
21240;BME280;10778;48.962;9.018;2023-09-12T02:15:19;98682.13;;;14.91;100.00
21240;BME280;10778;48.962;9.018;2023-09-12T02:17:45;98680.28;;;14.92;100.00
21240;BME280;10778;48.962;9.018;2023-09-12T02:20:11;98681.56;;;14.96;100.00
21240;BME280;10778;48.962;9.018;2023-09-12T02:22:37;98674.19;;;14.91;100.00
21240;BME280;10778;48.962;9.018;2023-09-12T02:25:05;98676.88;;;14.83;100.00
21240;BME280;10778;48.962;9.018;2023-09-12T02:27:31;98682.38;;;14.82;100.00
21240;BME280;10778;48.962;9.018;2023-09-12T02:29:57;98679.00;;;14.88;100.00
21240;BME280;10778;48.962;9.018;2023-09-12T02:32:23;98679.72;;;14.82;100.00
21240;BME280;10778;48.962;9.018;2023-09-12T02:34:49;98681.75;;;14.71;100.00
21240;BME280;10778;48.962;9.018;2023-09-12T02:37:15;98672.50;;;14.67;100.00
21240;BME280;10778;48.962;9.018;2023-09-12T02:39:41;98674.63;;;14.72;100.00
21240;BME280;10778;48.962;9.018;2023-09-12T02:42:07;98668.00;;;14.76;100.00
21240;BME280;10778;48.962;9.018;2023-09-12T02:44:33;98671.09;;;14.79;100.00
21240;BME280;10778;48.962;9.018;2023-09-12T02:46:59;98674.41;;;14.82;100.00
21240;BME280;10778;48.962;9.018;2023-09-12T02:49:25;98663.69;;;14.75;100.00
21240;BME280;10778;48.962;9.018;2023-09-12T02:51:51;98667.19;;;14.67;100.00
21240;BME280;10778;48.962;9.018;2023-09-12T02:54:17;98668.53;;;14.63;100.00
21240;BME280;10778;48.962;9.018;2023-09-12T02:56:43;98666.56;;;14.65;100.00
21240;BME280;10778;48.962;9.018;2023-09-12T02:59:09;98676.31;;;14.64;100.00
21240;BME280;10778;48.962;9.018;2023-09-12T03:01:35;98665.19;;;14.69;100.00
21240;BME280;10778;48.962;9.018;2023-09-12T03:04:02;98664.19;;;14.70;100.00
21240;BME280;10778;48.962;9.018;2023-09-12T03:06:28;98672.81;;;14.72;100.00
21240;BME280;10778;48.962;9.018;2023-09-12T03:08:57;98667.50;;;14.72;100.00
21240;BME280;10778;48.962;9.018;2023-09-12T03:11:25;98661.91;;;14.67;100.00
21240;BME280;10778;48.962;9.018;2023-09-12T03:13:51;98669.34;;;14.63;100.00
21240;BME280;10778;48.962;9.018;2023-09-12T03:16:17;98660.94;;;14.60;100.00
21240;BME280;10778;48.962;9.018;2023-09-12T03:18:43;98661.59;;;14.62;100.00
21240;BME280;10778;48.962;9.018;2023-09-12T03:21:09;98667.88;;;14.61;100.00
21240;BME280;10778;48.962;9.018;2023-09-12T03:23:35;98666.94;;;14.54;100.00
21240;BME280;10778;48.962;9.018;2023-09-12T03:26:06;98668.63;;;14.46;100.00
21240;BME280;10778;48.962;9.018;2023-09-12T03:28:33;98656.69;;;14.50;100.00
21240;BME280;10778;48.962;9.018;2023-09-12T03:31:13;98664.66;;;14.50;100.00
21240;BME280;10778;48.962;9.018;2023-09-12T03:33:41;98659.47;;;14.57;100.00
21240;BME280;10778;48.962;9.018;2023-09-12T03:36:08;98654.84;;;14.59;100.00
21240;BME280;10778;48.962;9.018;2023-09-12T03:38:35;98651.34;;;14.59;100.00
21240;BME280;10778;48.962;9.018;2023-09-12T03:41:01;98649.91;;;14.56;100.00
21240;BME280;10778;48.962;9.018;2023-09-12T03:43:28;98648.06;;;14.57;100.00
21240;BME280;10778;48.962;9.018;2023-09-12T03:45:54;98650.06;;;14.55;100.00
21240;BME280;10778;48.962;9.018;2023-09-12T03:48:21;98656.47;;;14.60;100.00
21240;BME280;10778;48.962;9.018;2023-09-12T03:50:47;98659.47;;;14.57;100.00
21240;BME280;10778;48.962;9.018;2023-09-12T03:53:14;98658.78;;;14.63;100.00
21240;BME280;10778;48.962;9.018;2023-09-12T03:55:40;98643.69;;;14.72;100.00
21240;BME280;10778;48.962;9.018;2023-09-12T03:58:06;98650.63;;;14.73;100.00
21240;BME280;10778;48.962;9.018;2023-09-12T04:00:33;98650.91;;;14.78;100.00
21240;BME280;10778;48.962;9.018;2023-09-12T04:02:59;98659.63;;;14.87;100.00
21240;BME280;10778;48.962;9.018;2023-09-12T04:05:25;98660.28;;;14.89;100.00
21240;BME280;10778;48.962;9.018;2023-09-12T04:07:51;98655.56;;;15.00;100.00
21240;BME280;10778;48.962;9.018;2023-09-12T04:10:19;98652.56;;;15.03;100.00
21240;BME280;10778;48.962;9.018;2023-09-12T04:12:45;98650.09;;;15.01;100.00
21240;BME280;10778;48.962;9.018;2023-09-12T04:15:12;98650.09;;;15.01;100.00
21240;BME280;10778;48.962;9.018;2023-09-12T04:17:38;98644.09;;;15.07;100.00
21240;BME280;10778;48.962;9.018;2023-09-12T04:20:05;98647.72;;;15.06;100.00
21240;BME280;10778;48.962;9.018;2023-09-12T04:22:33;98641.91;;;15.11;100.00
21240;BME280;10778;48.962;9.018;2023-09-12T04:24:59;98644.91;;;15.08;100.00
21240;BME280;10778;48.962;9.018;2023-09-12T04:27:25;98653.19;;;15.05;100.00
21240;BME280;10778;48.962;9.018;2023-09-12T04:29:51;98657.72;;;14.96;100.00
21240;BME280;10778;48.962;9.018;2023-09-12T04:32:17;98644.44;;;15.04;100.00
21240;BME280;10778;48.962;9.018;2023-09-12T04:34:49;98658.81;;;15.10;100.00
21240;BME280;10778;48.962;9.018;2023-09-12T04:37:16;98643.59;;;15.04;100.00
21240;BME280;10778;48.962;9.018;2023-09-12T04:39:42;98645.56;;;15.10;100.00
21240;BME280;10778;48.962;9.018;2023-09-12T04:42:08;98645.19;;;15.13;100.00
21240;BME280;10778;48.962;9.018;2023-09-12T04:44:35;98648.75;;;15.20;100.00
21240;BME280;10778;48.962;9.018;2023-09-12T04:47:02;98642.00;;;15.18;100.00
21240;BME280;10778;48.962;9.018;2023-09-12T04:49:29;98648.22;;;15.25;100.00
21240;BME280;10778;48.962;9.018;2023-09-12T04:51:56;98646.06;;;15.29;100.00
21240;BME280;10778;48.962;9.018;2023-09-12T04:54:22;98640.75;;;15.29;100.00
21240;BME280;10778;48.962;9.018;2023-09-12T04:56:48;98641.56;;;15.29;100.00
21240;BME280;10778;48.962;9.018;2023-09-12T04:59:14;98648.97;;;15.34;100.00
21240;BME280;10778;48.962;9.018;2023-09-12T05:01:40;98650.81;;;15.33;100.00
21240;BME280;10778;48.962;9.018;2023-09-12T05:04:06;98650.00;;;15.33;100.00
21240;BME280;10778;48.962;9.018;2023-09-12T05:06:34;98650.56;;;15.73;100.00
21240;BME280;10778;48.962;9.018;2023-09-12T05:09:00;98644.34;;;15.81;100.00
21240;BME280;10778;48.962;9.018;2023-09-12T05:11:26;98650.59;;;16.03;100.00
21240;BME280;10778;48.962;9.018;2023-09-12T05:13:52;98651.69;;;16.09;100.00
21240;BME280;10778;48.962;9.018;2023-09-12T05:16:18;98645.28;;;16.18;100.00
21240;BME280;10778;48.962;9.018;2023-09-12T05:18:44;98647.44;;;16.30;100.00
21240;BME280;10778;48.962;9.018;2023-09-12T05:21:10;98640.22;;;16.60;100.00
21240;BME280;10778;48.962;9.018;2023-09-12T05:23:36;98647.03;;;16.91;100.00
21240;BME280;10778;48.962;9.018;2023-09-12T05:26:02;98658.13;;;16.95;100.00
21240;BME280;10778;48.962;9.018;2023-09-12T05:28:28;98655.47;;;16.95;100.00
21240;BME280;10778;48.962;9.018;2023-09-12T05:30:55;98656.56;;;16.79;100.00
21240;BME280;10778;48.962;9.018;2023-09-12T05:33:21;98650.72;;;16.90;100.00
21240;BME280;10778;48.962;9.018;2023-09-12T05:35:47;98648.84;;;16.84;100.00
21240;BME280;10778;48.962;9.018;2023-09-12T05:38:13;98656.47;;;16.94;100.00
21240;BME280;10778;48.962;9.018;2023-09-12T05:40:39;98663.81;;;16.92;100.00
21240;BME280;10778;48.962;9.018;2023-09-12T05:43:05;98663.44;;;16.95;100.00
21240;BME280;10778;48.962;9.018;2023-09-12T05:45:31;98667.38;;;16.99;100.00
21240;BME280;10778;48.962;9.018;2023-09-12T05:47:59;98671.16;;;17.33;100.00
21240;BME280;10778;48.962;9.018;2023-09-12T05:50:26;98670.75;;;17.30;100.00
21240;BME280;10778;48.962;9.018;2023-09-12T05:52:52;98682.06;;;17.17;100.00
21240;BME280;10778;48.962;9.018;2023-09-12T05:55:18;98684.72;;;17.17;100.00
21240;BME280;10778;48.962;9.018;2023-09-12T05:57:45;98673.91;;;17.47;100.00
21240;BME280;10778;48.962;9.018;2023-09-12T06:00:11;98678.31;;;18.32;100.00
21240;BME280;10778;48.962;9.018;2023-09-12T06:02:41;98671.53;;;19.32;96.06
21240;BME280;10778;48.962;9.018;2023-09-12T06:05:08;98684.19;;;18.83;96.12
21240;BME280;10778;48.962;9.018;2023-09-12T06:07:34;98682.94;;;18.65;99.08
21240;BME280;10778;48.962;9.018;2023-09-12T06:10:01;98691.69;;;18.45;100.00
21240;BME280;10778;48.962;9.018;2023-09-12T06:12:27;98689.59;;;18.34;100.00
21240;BME280;10778;48.962;9.018;2023-09-12T06:14:53;98693.72;;;18.43;100.00
21240;BME280;10778;48.962;9.018;2023-09-12T06:17:21;98687.97;;;18.40;100.00
21240;BME280;10778;48.962;9.018;2023-09-12T06:19:48;98691.88;;;18.44;100.00
21240;BME280;10778;48.962;9.018;2023-09-12T06:22:17;98702.75;;;18.42;100.00
21240;BME280;10778;48.962;9.018;2023-09-12T06:24:44;98694.13;;;18.40;100.00
21240;BME280;10778;48.962;9.018;2023-09-12T06:27:10;98703.56;;;18.50;100.00
21240;BME280;10778;48.962;9.018;2023-09-12T06:29:38;98697.22;;;18.51;100.00
21240;BME280;10778;48.962;9.018;2023-09-12T06:32:04;98696.03;;;18.60;100.00
21240;BME280;10778;48.962;9.018;2023-09-12T06:34:30;98697.47;;;18.69;100.00
21240;BME280;10778;48.962;9.018;2023-09-12T06:36:56;98697.50;;;18.76;100.00
21240;BME280;10778;48.962;9.018;2023-09-12T06:39:22;98702.66;;;18.84;100.00
21240;BME280;10778;48.962;9.018;2023-09-12T06:41:50;98700.88;;;19.05;98.76
21240;BME280;10778;48.962;9.018;2023-09-12T06:44:16;98700.28;;;19.10;97.62
21240;BME280;10778;48.962;9.018;2023-09-12T06:46:42;98691.25;;;19.04;99.38
21240;BME280;10778;48.962;9.018;2023-09-12T06:49:08;98700.47;;;19.22;98.05
21240;BME280;10778;48.962;9.018;2023-09-12T06:51:34;98702.94;;;19.23;96.80
21240;BME280;10778;48.962;9.018;2023-09-12T06:53:59;98698.84;;;19.21;97.31
21240;BME280;10778;48.962;9.018;2023-09-12T06:56:25;98694.75;;;19.25;97.16
21240;BME280;10778;48.962;9.018;2023-09-12T06:58:52;98693.72;;;19.26;95.87
21240;BME280;10778;48.962;9.018;2023-09-12T07:01:21;98697.00;;;19.48;95.26
21240;BME280;10778;48.962;9.018;2023-09-12T07:03:46;98699.84;;;19.53;95.14
21240;BME280;10778;48.962;9.018;2023-09-12T07:06:12;98699.00;;;19.66;93.90
21240;BME280;10778;48.962;9.018;2023-09-12T07:08:39;98707.63;;;19.75;93.26
21240;BME280;10778;48.962;9.018;2023-09-12T07:11:05;98705.97;;;19.87;91.62
21240;BME280;10778;48.962;9.018;2023-09-12T07:13:32;98705.78;;;19.89;91.21
21240;BME280;10778;48.962;9.018;2023-09-12T07:15:58;98707.22;;;19.92;92.56
21240;BME280;10778;48.962;9.018;2023-09-12T07:18:25;98706.59;;;20.03;91.63
21240;BME280;10778;48.962;9.018;2023-09-12T07:21:02;98700.34;;;20.29;90.21
21240;BME280;10778;48.962;9.018;2023-09-12T07:23:28;98701.56;;;20.72;88.72
21240;BME280;10778;48.962;9.018;2023-09-12T07:25:56;98701.25;;;20.94;88.41
21240;BME280;10778;48.962;9.018;2023-09-12T07:28:26;98702.41;;;21.05;86.89
21240;BME280;10778;48.962;9.018;2023-09-12T07:30:53;98702.53;;;22.80;80.75
21240;BME280;10778;48.962;9.018;2023-09-12T07:33:19;98704.81;;;23.61;76.15
21240;BME280;10778;48.962;9.018;2023-09-12T07:35:47;98701.09;;;24.80;70.63
21240;BME280;10778;48.962;9.018;2023-09-12T07:38:13;98690.81;;;24.77;70.88
21240;BME280;10778;48.962;9.018;2023-09-12T07:40:42;98701.22;;;25.19;68.41
21240;BME280;10778;48.962;9.018;2023-09-12T07:43:09;98699.63;;;24.89;68.88
21240;BME280;10778;48.962;9.018;2023-09-12T07:45:35;98693.56;;;25.45;68.76
21240;BME280;10778;48.962;9.018;2023-09-12T07:48:06;98696.00;;;25.12;68.78
21240;BME280;10778;48.962;9.018;2023-09-12T07:50:32;98696.78;;;24.79;70.44
21240;BME280;10778;48.962;9.018;2023-09-12T07:52:58;98696.78;;;24.38;71.21
21240;BME280;10778;48.962;9.018;2023-09-12T07:55:24;98712.63;;;23.75;76.02
21240;BME280;10778;48.962;9.018;2023-09-12T07:57:50;98714.66;;;22.70;79.19
21240;BME280;10778;48.962;9.018;2023-09-12T08:00:16;98714.88;;;22.31;81.40
21240;BME280;10778;48.962;9.018;2023-09-12T08:02:43;98712.97;;;24.55;74.77
21240;BME280;10778;48.962;9.018;2023-09-12T08:05:08;98716.56;;;25.36;71.04
21240;BME280;10778;48.962;9.018;2023-09-12T08:07:35;98719.22;;;24.72;72.38
21240;BME280;10778;48.962;9.018;2023-09-12T08:10:01;98722.16;;;24.30;73.49
21240;BME280;10778;48.962;9.018;2023-09-12T08:12:28;98716.56;;;24.61;73.05
21240;BME280;10778;48.962;9.018;2023-09-12T08:14:54;98714.03;;;25.63;70.64
21240;BME280;10778;48.962;9.018;2023-09-12T08:17:21;98712.09;;;26.87;64.71
21240;BME280;10778;48.962;9.018;2023-09-12T08:19:47;98705.00;;;27.79;61.95
21240;BME280;10778;48.962;9.018;2023-09-12T08:22:14;98700.16;;;28.34;59.12
21240;BME280;10778;48.962;9.018;2023-09-12T08:24:40;98697.09;;;28.20;60.17
21240;BME280;10778;48.962;9.018;2023-09-12T08:27:06;98706.03;;;26.52;64.36
21240;BME280;10778;48.962;9.018;2023-09-12T08:29:33;98699.84;;;27.39;62.25
21240;BME280;10778;48.962;9.018;2023-09-12T08:32:00;98696.53;;;27.65;62.07
21240;BME280;10778;48.962;9.018;2023-09-12T08:34:26;98691.75;;;28.41;59.47
21240;BME280;10778;48.962;9.018;2023-09-12T08:36:52;98686.97;;;28.74;57.79
21240;BME280;10778;48.962;9.018;2023-09-12T08:39:24;98685.66;;;28.87;58.38
21240;BME280;10778;48.962;9.018;2023-09-12T08:41:51;98673.41;;;29.83;55.21
21240;BME280;10778;48.962;9.018;2023-09-12T08:44:17;98669.53;;;29.94;53.72
21240;BME280;10778;48.962;9.018;2023-09-12T08:46:45;98674.25;;;29.52;55.32
21240;BME280;10778;48.962;9.018;2023-09-12T08:49:11;98669.09;;;30.43;53.13
21240;BME280;10778;48.962;9.018;2023-09-12T08:51:38;98666.16;;;30.79;51.91
21240;BME280;10778;48.962;9.018;2023-09-12T08:54:05;98676.19;;;30.78;51.51
21240;BME280;10778;48.962;9.018;2023-09-12T08:56:36;98672.91;;;30.36;52.73
21240;BME280;10778;48.962;9.018;2023-09-12T08:59:05;98684.19;;;29.93;53.92
21240;BME280;10778;48.962;9.018;2023-09-12T09:01:32;98662.91;;;30.32;53.87
21240;BME280;10778;48.962;9.018;2023-09-12T09:04:02;98671.59;;;30.29;53.13
21240;BME280;10778;48.962;9.018;2023-09-12T09:06:30;98668.13;;;30.18;53.87
21240;BME280;10778;48.962;9.018;2023-09-12T09:08:58;98667.91;;;29.99;53.45
21240;BME280;10778;48.962;9.018;2023-09-12T09:11:25;98675.00;;;29.84;54.18
21240;BME280;10778;48.962;9.018;2023-09-12T09:13:54;98665.41;;;30.23;53.60
21240;BME280;10778;48.962;9.018;2023-09-12T09:16:20;98675.00;;;29.89;55.01
21240;BME280;10778;48.962;9.018;2023-09-12T09:21:20;98669.91;;;29.67;56.23
21240;BME280;10778;48.962;9.018;2023-09-12T09:23:47;98659.94;;;30.28;52.11
21240;BME280;10778;48.962;9.018;2023-09-12T09:26:13;98663.34;;;29.89;54.03
21240;BME280;10778;48.962;9.018;2023-09-12T09:28:39;98659.00;;;29.83;53.54
21240;BME280;10778;48.962;9.018;2023-09-12T09:31:10;98661.06;;;30.22;53.49
21240;BME280;10778;48.962;9.018;2023-09-12T09:33:37;98651.22;;;30.31;52.32
21240;BME280;10778;48.962;9.018;2023-09-12T09:36:05;98643.81;;;30.87;50.15
21240;BME280;10778;48.962;9.018;2023-09-12T09:38:31;98645.66;;;30.57;52.02
21240;BME280;10778;48.962;9.018;2023-09-12T09:40:59;98643.00;;;30.47;53.85
21240;BME280;10778;48.962;9.018;2023-09-12T09:43:25;98644.44;;;30.29;53.16
21240;BME280;10778;48.962;9.018;2023-09-12T09:45:52;98649.34;;;30.77;52.77
21240;BME280;10778;48.962;9.018;2023-09-12T09:48:22;98651.97;;;30.47;53.32
21240;BME280;10778;48.962;9.018;2023-09-12T09:50:49;98643.13;;;30.26;53.71
21240;BME280;10778;48.962;9.018;2023-09-12T09:53:15;98638.38;;;30.92;52.32
21240;BME280;10778;48.962;9.018;2023-09-12T09:55:41;98638.50;;;30.27;52.94
21240;BME280;10778;48.962;9.018;2023-09-12T09:58:08;98632.88;;;30.98;51.67
21240;BME280;10778;48.962;9.018;2023-09-12T10:00:36;98635.03;;;30.61;52.04
21240;BME280;10778;48.962;9.018;2023-09-12T10:03:06;98639.59;;;30.31;54.55
21240;BME280;10778;48.962;9.018;2023-09-12T10:05:37;98630.06;;;30.33;51.61
21240;BME280;10778;48.962;9.018;2023-09-12T10:08:06;98623.38;;;30.15;53.20
21240;BME280;10778;48.962;9.018;2023-09-12T10:10:32;98625.63;;;30.48;53.49
21240;BME280;10778;48.962;9.018;2023-09-12T10:13:00;98621.38;;;30.31;50.24
21240;BME280;10778;48.962;9.018;2023-09-12T10:15:29;98621.94;;;30.28;50.31
21240;BME280;10778;48.962;9.018;2023-09-12T10:17:58;98617.31;;;30.29;51.77
21240;BME280;10778;48.962;9.018;2023-09-12T10:20:28;98627.13;;;30.25;51.09
21240;BME280;10778;48.962;9.018;2023-09-12T10:23:06;98627.56;;;30.42;49.73
21240;BME280;10778;48.962;9.018;2023-09-12T10:25:37;98622.94;;;30.43;50.06
21240;BME280;10778;48.962;9.018;2023-09-12T10:28:04;98618.69;;;30.71;51.10
21240;BME280;10778;48.962;9.018;2023-09-12T10:30:32;98613.19;;;30.82;50.86
21240;BME280;10778;48.962;9.018;2023-09-12T10:33:01;98614.97;;;30.97;51.96
21240;BME280;10778;48.962;9.018;2023-09-12T10:35:27;98610.25;;;30.73;50.00
21240;BME280;10778;48.962;9.018;2023-09-12T10:37:59;98614.31;;;30.75;50.06
21240;BME280;10778;48.962;9.018;2023-09-12T10:40:27;98616.66;;;30.87;47.96
21240;BME280;10778;48.962;9.018;2023-09-12T10:42:55;98626.22;;;29.74;50.37
21240;BME280;10778;48.962;9.018;2023-09-12T10:45:21;98616.78;;;30.32;49.01
21240;BME280;10778;48.962;9.018;2023-09-12T10:47:47;98619.09;;;30.04;50.39
21240;BME280;10778;48.962;9.018;2023-09-12T10:50:14;98616.34;;;30.54;49.39
21240;BME280;10778;48.962;9.018;2023-09-12T10:52:40;98627.78;;;29.90;49.75
21240;BME280;10778;48.962;9.018;2023-09-12T10:55:07;98625.31;;;30.09;48.63
21240;BME280;10778;48.962;9.018;2023-09-12T10:57:34;98622.81;;;30.18;48.52
21240;BME280;10778;48.962;9.018;2023-09-12T11:02:31;98611.63;;;30.30;48.84
21240;BME280;10778;48.962;9.018;2023-09-12T11:04:58;98603.84;;;30.53;49.55
21240;BME280;10778;48.962;9.018;2023-09-12T11:10:23;98603.00;;;30.18;50.06
21240;BME280;10778;48.962;9.018;2023-09-12T11:12:53;98600.91;;;30.09;50.10
21240;BME280;10778;48.962;9.018;2023-09-12T11:15:21;98603.22;;;30.27;50.73
21240;BME280;10778;48.962;9.018;2023-09-12T11:18:21;98594.97;;;30.47;49.06
21240;BME280;10778;48.962;9.018;2023-09-12T11:21:00;98595.69;;;30.58;48.42
21240;BME280;10778;48.962;9.018;2023-09-12T11:23:29;98592.47;;;30.56;49.02
21240;BME280;10778;48.962;9.018;2023-09-12T11:26:07;98579.97;;;30.90;48.17
21240;BME280;10778;48.962;9.018;2023-09-12T11:28:33;98589.94;;;31.00;47.50
21240;BME280;10778;48.962;9.018;2023-09-12T11:30:59;98588.78;;;30.76;47.39
21240;BME280;10778;48.962;9.018;2023-09-12T11:33:25;98567.97;;;31.26;47.61
21240;BME280;10778;48.962;9.018;2023-09-12T11:35:55;98562.59;;;31.20;47.96
21240;BME280;10778;48.962;9.018;2023-09-12T11:38:28;98579.13;;;30.94;48.02
21240;BME280;10778;48.962;9.018;2023-09-12T11:40:55;98574.03;;;30.88;48.34
21240;BME280;10778;48.962;9.018;2023-09-12T11:43:25;98573.78;;;30.84;48.24
21240;BME280;10778;48.962;9.018;2023-09-12T11:45:52;98567.59;;;31.08;46.77
21240;BME280;10778;48.962;9.018;2023-09-12T11:48:19;98567.22;;;30.16;48.15
21240;BME280;10778;48.962;9.018;2023-09-12T11:50:54;98565.78;;;29.73;49.49
21240;BME280;10778;48.962;9.018;2023-09-12T11:53:22;98581.06;;;29.43;51.13
21240;BME280;10778;48.962;9.018;2023-09-12T11:55:59;98584.94;;;28.95;52.56
21240;BME280;10778;48.962;9.018;2023-09-12T11:58:26;98575.94;;;29.21;50.77
21240;BME280;10778;48.962;9.018;2023-09-12T12:00:57;98577.28;;;29.39;50.33
21240;BME280;10778;48.962;9.018;2023-09-12T12:03:25;98583.81;;;29.12;51.44
21240;BME280;10778;48.962;9.018;2023-09-12T12:05:54;98580.31;;;29.06;51.06
21240;BME280;10778;48.962;9.018;2023-09-12T12:08:20;98576.53;;;28.87;51.19
21240;BME280;10778;48.962;9.018;2023-09-12T12:10:50;98580.59;;;28.68;52.06
21240;BME280;10778;48.962;9.018;2023-09-12T12:13:18;98581.38;;;28.59;52.72
21240;BME280;10778;48.962;9.018;2023-09-12T12:15:44;98581.38;;;28.53;54.25
21240;BME280;10778;48.962;9.018;2023-09-12T12:18:10;98582.19;;;28.44;52.33
21240;BME280;10778;48.962;9.018;2023-09-12T12:20:36;98568.41;;;28.50;51.99
21240;BME280;10778;48.962;9.018;2023-09-12T12:23:03;98558.66;;;28.65;51.69
21240;BME280;10778;48.962;9.018;2023-09-12T12:25:35;98560.41;;;29.63;50.45
21240;BME280;10778;48.962;9.018;2023-09-12T12:28:02;98559.31;;;30.19;47.97
21240;BME280;10778;48.962;9.018;2023-09-12T12:30:33;98555.81;;;30.54;47.67
21240;BME280;10778;48.962;9.018;2023-09-12T12:33:07;98553.16;;;30.83;47.43
21240;BME280;10778;48.962;9.018;2023-09-12T12:35:33;98547.13;;;30.91;47.40
21240;BME280;10778;48.962;9.018;2023-09-12T12:37:59;98548.75;;;30.87;49.03
21240;BME280;10778;48.962;9.018;2023-09-12T12:40:26;98553.84;;;30.25;49.80
21240;BME280;10778;48.962;9.018;2023-09-12T12:42:52;98543.50;;;29.81;50.25
21240;BME280;10778;48.962;9.018;2023-09-12T12:45:20;98557.47;;;29.38;50.63
21240;BME280;10778;48.962;9.018;2023-09-12T12:47:51;98561.38;;;29.01;51.05
21240;BME280;10778;48.962;9.018;2023-09-12T12:50:17;98560.03;;;28.83;51.72
21240;BME280;10778;48.962;9.018;2023-09-12T12:52:48;98560.28;;;28.76;52.26
21240;BME280;10778;48.962;9.018;2023-09-12T12:55:15;98555.69;;;28.82;51.71
21240;BME280;10778;48.962;9.018;2023-09-12T12:57:43;98555.16;;;28.85;52.43
21240;BME280;10778;48.962;9.018;2023-09-12T13:00:14;98550.00;;;28.94;52.49
21240;BME280;10778;48.962;9.018;2023-09-12T13:02:42;98549.72;;;29.01;52.70
21240;BME280;10778;48.962;9.018;2023-09-12T13:05:39;98536.38;;;29.96;50.88
21240;BME280;10778;48.962;9.018;2023-09-12T13:08:07;98530.06;;;30.80;49.01
21240;BME280;10778;48.962;9.018;2023-09-12T13:10:33;98531.13;;;31.39;47.49